Time;durP1;ratioP1;P1;durP2;ratioP2;P2;SDS_P1;SDS_P2;PMS_P1;PMS_P2;Temp;Humidity;BMP_temperature;BMP_pressure;BME280_temperature;BME280_humidity;BME280_pressure;Samples;Min_cycle;Max_cycle;Signal;HPM_P1;HPM_P2
2021/07/31 00:01:07;;;;;;;7.55;4.43;;;18.00;99.90;;;;;;4974037;28;20470;-89
2021/07/31 00:03:34;;;;;;;8.07;4.53;;;18.00;99.90;;;;;;4976844;28;20089;-89
2021/07/31 00:06:00;;;;;;;6.28;4.43;;;18.00;99.90;;;;;;4994623;28;20038;-89
2021/07/31 00:08:28;;;;;;;6.40;4.80;;;18.10;99.90;;;;;;4991162;28;20034;-91
2021/07/31 00:10:54;;;;;;;5.80;4.50;;;18.10;99.90;;;;;;4957808;28;20061;-90
2021/07/31 00:13:20;;;;;;;6.95;4.40;;;18.00;99.90;;;;;;4962370;28;20414;-89
2021/07/31 00:15:46;;;;;;;6.60;4.63;;;18.00;99.90;;;;;;4978868;28;20022;-91
2021/07/31 00:18:12;;;;;;;6.10;4.30;;;18.00;99.90;;;;;;4991396;28;20502;-90
2021/07/31 00:20:38;;;;;;;5.82;4.40;;;17.90;99.90;;;;;;4985704;28;20393;-90
2021/07/31 00:23:05;;;;;;;5.43;4.38;;;18.00;99.90;;;;;;4991116;28;20504;-89
2021/07/31 00:25:32;;;;;;;5.90;4.20;;;17.90;99.90;;;;;;4993922;28;20030;-89
2021/07/31 00:27:58;;;;;;;5.72;4.25;;;17.90;99.90;;;;;;4994403;28;20058;-89
2021/07/31 00:30:25;;;;;;;6.07;4.20;;;17.90;99.90;;;;;;4993206;28;20066;-90
2021/07/31 00:32:52;;;;;;;7.90;4.53;;;17.90;99.90;;;;;;4991345;28;20515;-90
2021/07/31 00:35:19;;;;;;;6.30;4.32;;;18.00;99.90;;;;;;4974868;28;20031;-90
2021/07/31 00:37:45;;;;;;;4.57;4.10;;;18.00;99.90;;;;;;4997742;28;20030;-89
2021/07/31 00:40:10;;;;;;;5.43;4.28;;;18.00;99.90;;;;;;4975150;28;20251;-90
2021/07/31 00:42:38;;;;;;;4.65;4.03;;;18.00;99.90;;;;;;4958063;28;20499;-89
2021/07/31 00:45:04;;;;;;;5.97;4.65;;;18.00;99.90;;;;;;4959013;28;20049;-90
2021/07/31 00:47:31;;;;;;;8.15;4.40;;;18.00;99.90;;;;;;4975207;28;20481;-90
2021/07/31 00:50:20;;;;;;;6.55;4.75;;;18.00;99.90;;;;;;4961655;28;20026;-90
2021/07/31 00:52:49;;;;;;;6.75;4.05;;;18.10;99.90;;;;;;4982670;28;20035;-90
2021/07/31 00:55:16;;;;;;;8.10;4.15;;;18.10;99.90;;;;;;4978322;28;20598;-89
2021/07/31 00:57:46;;;;;;;4.53;3.72;;;18.10;99.90;;;;;;4988162;28;20046;-89
2021/07/31 01:00:26;;;;;;;5.80;4.60;;;18.10;99.90;;;;;;4991361;28;20129;-91
2021/07/31 01:02:51;;;;;;;8.63;4.10;;;18.10;99.90;;;;;;4991184;28;20033;-91
2021/07/31 01:05:17;;;;;;;9.48;4.45;;;18.20;99.90;;;;;;4991013;28;20421;-91
2021/07/31 01:07:44;;;;;;;5.95;3.95;;;18.20;99.90;;;;;;4991479;28;20035;-91
2021/07/31 01:10:10;;;;;;;5.00;3.42;;;18.20;99.90;;;;;;4991874;28;20046;-90
2021/07/31 01:12:39;;;;;;;7.10;4.07;;;18.20;99.90;;;;;;4991203;28;20589;-92
2021/07/31 01:15:07;;;;;;;5.70;4.10;;;18.30;99.90;;;;;;4994209;28;20026;-91
2021/07/31 01:17:33;;;;;;;5.38;4.07;;;18.30;99.90;;;;;;4994265;28;20052;-91
2021/07/31 01:19:59;;;;;;;9.43;4.57;;;18.20;99.90;;;;;;4993787;28;20026;-91
2021/07/31 01:22:25;;;;;;;5.05;4.30;;;18.20;99.90;;;;;;4993830;28;20409;-90
2021/07/31 01:24:57;;;;;;;4.63;3.97;;;18.20;99.90;;;;;;4993707;28;20433;-90
2021/07/31 01:27:23;;;;;;;8.35;4.65;;;18.20;99.90;;;;;;4993501;28;20081;-91
2021/07/31 01:29:49;;;;;;;5.57;4.35;;;18.10;99.90;;;;;;4993394;28;20029;-91
2021/07/31 01:32:16;;;;;;;6.10;4.38;;;18.10;99.90;;;;;;4994456;28;20022;-91
2021/07/31 01:34:42;;;;;;;4.97;3.70;;;18.10;99.90;;;;;;4994028;28;20049;-90
2021/07/31 01:37:08;;;;;;;6.97;4.57;;;18.00;99.90;;;;;;4993945;28;20030;-91
2021/07/31 01:39:34;;;;;;;6.90;3.97;;;18.00;99.90;;;;;;4961961;28;20038;-91
2021/07/31 01:42:00;;;;;;;5.65;4.00;;;18.00;99.90;;;;;;4993701;28;20504;-91
2021/07/31 01:44:28;;;;;;;5.50;3.65;;;18.00;99.90;;;;;;4993406;28;20038;-91
2021/07/31 01:46:54;;;;;;;5.15;3.83;;;17.90;99.90;;;;;;4976784;28;20084;-90
2021/07/31 01:49:22;;;;;;;4.78;3.70;;;18.00;99.90;;;;;;4977507;28;20481;-90
2021/07/31 01:51:59;;;;;;;5.03;3.67;;;17.90;99.90;;;;;;4993647;28;20038;-91
2021/07/31 01:54:25;;;;;;;3.72;2.95;;;17.90;99.90;;;;;;4993536;28;20389;-91
2021/07/31 01:56:52;;;;;;;5.10;3.50;;;17.90;99.90;;;;;;4993237;28;20120;-91
2021/07/31 01:59:21;;;;;;;4.30;3.50;;;17.90;99.90;;;;;;4992905;28;20023;-90
2021/07/31 02:01:48;;;;;;;4.45;3.55;;;17.90;99.90;;;;;;4993470;28;20129;-91
2021/07/31 02:04:13;;;;;;;4.72;3.63;;;17.80;99.90;;;;;;4993159;28;20085;-91
2021/07/31 02:06:57;;;;;;;4.10;3.13;;;17.70;99.90;;;;;;4994366;28;20152;-92
2021/07/31 02:09:25;;;;;;;6.55;3.53;;;17.70;99.90;;;;;;4993931;28;20393;-91
2021/07/31 02:11:50;;;;;;;2.83;2.58;;;17.60;99.90;;;;;;4993054;28;20033;-91
2021/07/31 02:14:16;;;;;;;4.22;3.30;;;17.60;99.90;;;;;;4993821;28;20037;-91
2021/07/31 02:16:47;;;;;;;4.32;3.08;;;17.60;99.90;;;;;;4992758;28;20026;-91
2021/07/31 02:19:17;;;;;;;3.58;3.08;;;17.50;99.90;;;;;;4992847;28;20023;-91
2021/07/31 02:21:56;;;;;;;4.07;2.97;;;17.40;99.90;;;;;;4993311;28;20029;-90
2021/07/31 02:24:42;;;;;;;4.53;2.88;;;17.40;99.90;;;;;;4992550;28;20041;-90
2021/07/31 02:27:26;;;;;;;4.50;2.47;;;17.40;99.90;;;;;;4973507;28;20045;-91
2021/07/31 02:29:59;;;;;;;5.10;2.72;;;17.30;99.90;;;;;;4973767;28;20026;-91
2021/07/31 02:32:26;;;;;;;2.97;2.08;;;17.30;99.90;;;;;;4956434;28;20033;-90
2021/07/31 02:34:52;;;;;;;3.40;2.25;;;17.30;99.90;;;;;;4956867;28;20031;-91
2021/07/31 02:37:18;;;;;;;4.65;1.88;;;17.30;99.90;;;;;;4956668;28;20034;-91
2021/07/31 02:39:49;;;;;;;3.78;2.10;;;17.20;99.90;;;;;;4956838;28;20030;-90
2021/07/31 02:42:16;;;;;;;3.53;2.65;;;17.30;99.90;;;;;;4972331;28;20060;-91
2021/07/31 02:44:42;;;;;;;3.47;2.28;;;17.20;99.90;;;;;;4972754;28;20031;-90
2021/07/31 02:47:11;;;;;;;2.83;2.10;;;17.20;99.90;;;;;;4972801;28;20034;-90
2021/07/31 02:49:41;;;;;;;2.58;2.08;;;17.20;99.90;;;;;;4956742;28;20405;-92
2021/07/31 02:52:08;;;;;;;3.15;2.20;;;17.10;99.90;;;;;;4956417;28;20027;-91
2021/07/31 02:54:41;;;;;;;5.35;2.50;;;17.10;99.90;;;;;;4957729;28;20027;-91
2021/07/31 02:57:08;;;;;;;4.47;2.58;;;17.10;99.90;;;;;;4956402;28;20035;-91
2021/07/31 02:59:34;;;;;;;3.53;2.10;;;17.00;99.90;;;;;;4956029;28;20042;-91
2021/07/31 03:02:02;;;;;;;3.70;2.53;;;16.90;99.90;;;;;;4956616;28;20034;-91
2021/07/31 03:04:27;;;;;;;2.60;2.30;;;16.80;99.90;;;;;;4972431;28;20413;-91
2021/07/31 03:07:05;;;;;;;4.15;2.83;;;16.70;99.90;;;;;;4957834;28;20035;-90
2021/07/31 03:09:34;;;;;;;4.00;2.75;;;16.70;99.90;;;;;;4956720;28;20059;-91
2021/07/31 03:12:00;;;;;;;3.72;2.70;;;16.60;99.90;;;;;;4972677;28;20026;-90
2021/07/31 03:14:28;;;;;;;3.05;2.30;;;16.60;99.90;;;;;;4956798;28;20034;-91
2021/07/31 03:16:56;;;;;;;2.55;2.30;;;16.50;99.90;;;;;;4956723;28;20441;-91
2021/07/31 03:19:22;;;;;;;5.20;2.85;;;16.50;99.90;;;;;;4956020;28;20034;-92
2021/07/31 03:21:55;;;;;;;3.42;2.58;;;16.40;99.90;;;;;;4957453;28;20034;-91
2021/07/31 03:24:44;;;;;;;4.03;2.60;;;16.40;99.90;;;;;;4959696;28;20492;-90
2021/07/31 03:27:10;;;;;;;4.50;2.58;;;16.40;99.90;;;;;;4956066;28;20139;-91
2021/07/31 03:29:56;;;;;;;4.07;2.55;;;16.40;99.90;;;;;;4974166;28;20445;-91
2021/07/31 03:32:51;;;;;;;3.58;2.97;;;16.30;99.90;;;;;;4988384;28;20031;-91
2021/07/31 03:35:19;;;;;;;3.88;2.72;;;16.30;99.90;;;;;;4989009;28;20054;-91
2021/07/31 03:38:11;;;;;;;4.25;2.92;;;16.20;99.90;;;;;;4973412;28;20031;-91
2021/07/31 03:40:39;;;;;;;4.40;2.70;;;16.10;99.90;;;;;;4992218;28;20050;-91
2021/07/31 03:43:07;;;;;;;7.30;2.78;;;16.10;99.90;;;;;;4992505;28;20089;-91
2021/07/31 03:45:36;;;;;;;4.90;2.80;;;16.10;99.90;;;;;;4992473;28;20031;-92
2021/07/31 03:48:02;;;;;;;4.00;2.78;;;16.00;99.90;;;;;;4992246;28;20649;-91
2021/07/31 03:50:29;;;;;;;3.90;2.92;;;16.00;99.90;;;;;;4991825;28;20031;-91
2021/07/31 03:53:03;;;;;;;2.75;2.42;;;15.90;99.90;;;;;;4992205;28;20031;-90
2021/07/31 03:55:31;;;;;;;5.25;2.75;;;15.90;99.90;;;;;;4992424;28;20512;-91
2021/07/31 03:57:57;;;;;;;3.05;2.33;;;15.90;99.90;;;;;;4992427;28;20041;-92
2021/07/31 04:00:23;;;;;;;2.90;2.53;;;15.80;99.90;;;;;;4989848;28;20358;-91
2021/07/31 04:02:56;;;;;;;2.80;2.60;;;15.80;99.90;;;;;;4979810;28;20125;-91
2021/07/31 04:05:22;;;;;;;5.05;2.80;;;15.90;99.90;;;;;;4979232;28;20030;-91
2021/07/31 04:08:11;;;;;;;3.33;2.50;;;15.90;99.90;;;;;;4994414;28;20035;-91
2021/07/31 04:10:55;;;;;;;7.33;3.20;;;16.00;99.90;;;;;;4994934;28;20397;-91
2021/07/31 04:13:47;;;;;;;5.00;2.35;;;15.90;99.90;;;;;;4979738;28;20132;-92
2021/07/31 04:16:16;;;;;;;4.05;2.80;;;15.80;99.90;;;;;;4995120;28;20132;-91
2021/07/31 04:18:42;;;;;;;4.38;2.58;;;15.70;99.90;;;;;;4995069;28;20062;-91
2021/07/31 04:21:09;;;;;;;2.97;2.50;;;15.70;99.90;;;;;;4978635;28;20085;-91
2021/07/31 04:23:36;;;;;;;3.90;2.65;;;15.70;99.90;;;;;;4994851;28;20084;-91
2021/07/31 04:26:14;;;;;;;3.58;2.70;;;15.60;99.90;;;;;;4994836;28;20424;-91
2021/07/31 04:28:40;;;;;;;6.25;2.90;;;15.60;99.90;;;;;;4991183;28;20129;-90
2021/07/31 04:31:11;;;;;;;4.40;2.63;;;15.70;99.90;;;;;;4990902;28;20031;-90
2021/07/31 04:33:37;;;;;;;4.40;3.00;;;15.70;99.90;;;;;;4991641;28;20497;-90
2021/07/31 04:36:04;;;;;;;3.08;2.67;;;15.70;99.90;;;;;;4986519;28;20119;-90
2021/07/31 04:38:30;;;;;;;7.20;3.42;;;15.70;99.90;;;;;;4975442;28;20055;-90
2021/07/31 04:40:57;;;;;;;3.30;2.85;;;15.70;99.90;;;;;;4975074;28;20060;-90
2021/07/31 04:43:23;;;;;;;4.00;2.97;;;15.70;99.90;;;;;;4974976;28;20035;-90
2021/07/31 04:45:49;;;;;;;3.85;3.10;;;15.70;99.90;;;;;;4981224;28;20026;-90
2021/07/31 04:48:17;;;;;;;5.80;3.08;;;15.80;99.90;;;;;;4993585;28;20057;-90
2021/07/31 04:50:43;;;;;;;3.75;3.00;;;15.80;99.90;;;;;;4978372;28;20058;-90
2021/07/31 04:53:09;;;;;;;4.10;2.92;;;15.80;99.90;;;;;;4978403;28;20513;-90
2021/07/31 04:55:35;;;;;;;4.18;3.10;;;15.90;99.90;;;;;;4994340;28;20022;-90
2021/07/31 04:58:14;;;;;;;3.67;2.95;;;16.10;99.90;;;;;;5089459;28;20875;-79
2021/07/31 05:00:40;;;;;;;5.88;2.70;;;16.10;99.90;;;;;;5074227;28;20086;-79
2021/07/31 05:03:06;;;;;;;3.83;2.85;;;16.10;99.90;;;;;;5059574;28;20067;-78
2021/07/31 05:05:36;;;;;;;3.70;2.75;;;16.10;99.90;;;;;;5087721;28;20040;-79
2021/07/31 05:08:02;;;;;;;7.70;3.40;;;16.20;99.90;;;;;;5073687;28;20052;-79
2021/07/31 05:10:27;;;;;;;3.67;2.92;;;16.20;99.90;;;;;;5056163;28;20064;-79
2021/07/31 05:12:53;;;;;;;2.85;2.38;;;16.30;99.90;;;;;;5084858;28;20021;-79
2021/07/31 05:15:19;;;;;;;3.47;2.25;;;16.40;99.90;;;;;;5070627;28;20070;-79
2021/07/31 05:17:45;;;;;;;4.45;2.50;;;16.40;99.90;;;;;;5068666;28;20469;-80
2021/07/31 05:20:11;;;;;;;3.60;2.17;;;16.50;99.90;;;;;;5067163;28;20025;-79
2021/07/31 05:22:37;;;;;;;2.85;2.55;;;16.60;99.90;;;;;;5071183;28;20607;-79
2021/07/31 05:25:03;;;;;;;3.22;2.30;;;16.60;99.90;;;;;;5075283;28;20025;-78
2021/07/31 05:27:29;;;;;;;2.42;2.22;;;16.70;99.90;;;;;;5076970;28;20067;-76
2021/07/31 05:29:55;;;;;;;4.00;2.35;;;16.80;99.90;;;;;;5076862;28;20060;-76
2021/07/31 05:32:20;;;;;;;2.55;2.00;;;17.00;99.90;;;;;;5077130;28;20052;-79
2021/07/31 05:34:46;;;;;;;2.58;2.15;;;17.10;99.90;;;;;;5072141;28;20111;-78
2021/07/31 05:37:12;;;;;;;4.30;2.00;;;17.30;99.90;;;;;;5078213;28;20119;-78
2021/07/31 05:39:38;;;;;;;2.85;1.90;;;17.40;99.90;;;;;;5079032;28;20070;-77
2021/07/31 05:42:05;;;;;;;2.47;1.70;;;17.50;99.90;;;;;;5067100;28;20059;-76
2021/07/31 05:44:32;;;;;;;2.75;2.10;;;17.80;99.90;;;;;;5065596;28;20094;-76
2021/07/31 05:46:58;;;;;;;2.90;2.17;;;18.00;99.90;;;;;;5066139;28;20486;-77
2021/07/31 05:49:24;;;;;;;2.53;1.70;;;18.20;99.90;;;;;;5069675;28;20047;-77
2021/07/31 05:51:50;;;;;;;3.35;1.75;;;18.30;99.90;;;;;;5086002;28;20040;-77
2021/07/31 05:54:15;;;;;;;2.80;1.98;;;18.60;99.90;;;;;;5070023;28;20032;-76
2021/07/31 05:56:42;;;;;;;3.20;2.53;;;18.80;99.90;;;;;;5067851;28;20166;-76
2021/07/31 05:59:08;;;;;;;3.90;1.77;;;19.10;99.90;;;;;;5083422;28;20096;-76
2021/07/31 06:01:36;;;;;;;3.45;1.60;;;19.30;99.90;;;;;;5058325;28;20456;-76
2021/07/31 06:04:02;;;;;;;1.90;1.60;;;19.60;99.90;;;;;;5056144;28;20107;-76
2021/07/31 06:06:27;;;;;;;1.75;1.45;;;19.80;99.90;;;;;;5070269;28;20039;-76
2021/07/31 06:08:53;;;;;;;3.95;1.42;;;20.00;99.90;;;;;;5076315;28;20029;-76
2021/07/31 06:11:19;;;;;;;3.97;1.42;;;20.40;99.90;;;;;;5071785;28;20040;-77
2021/07/31 06:13:44;;;;;;;2.95;1.70;;;20.60;99.90;;;;;;5059226;28;20057;-77
2021/07/31 06:16:10;;;;;;;3.22;1.60;;;20.80;99.90;;;;;;5071412;28;20399;-76
2021/07/31 06:18:37;;;;;;;2.83;1.52;;;21.00;99.90;;;;;;5062514;28;20455;-76
2021/07/31 06:21:12;;;;;;;1.80;1.42;;;21.20;99.90;;;;;;5063801;28;20131;-77
2021/07/31 06:23:38;;;;;;;2.75;1.70;;;21.40;99.90;;;;;;5054888;28;20021;-77
2021/07/31 06:26:04;;;;;;;1.52;1.30;;;21.50;99.90;;;;;;5050958;28;20091;-77
2021/07/31 06:28:29;;;;;;;1.95;1.42;;;21.60;99.90;;;;;;5048407;28;20022;-76
2021/07/31 06:30:55;;;;;;;2.90;1.33;;;21.60;99.90;;;;;;5050237;28;20407;-77
2021/07/31 06:33:21;;;;;;;2.40;1.38;;;21.60;99.90;;;;;;5048645;28;20036;-78
2021/07/31 06:35:47;;;;;;;1.63;1.30;;;21.70;99.90;;;;;;5052992;28;20090;-77
2021/07/31 06:38:12;;;;;;;2.38;1.27;;;21.90;99.90;;;;;;5053174;28;20067;-77
2021/07/31 06:40:40;;;;;;;1.80;0.73;;;22.00;99.90;;;;;;5042924;28;20033;-77
2021/07/31 06:43:06;;;;;;;3.58;1.20;;;22.00;99.90;;;;;;5046639;28;20029;-77
2021/07/31 06:45:33;;;;;;;3.15;1.10;;;22.10;97.40;;;;;;5045801;28;20032;-77
2021/07/31 06:47:58;;;;;;;3.10;1.02;;;22.20;97.80;;;;;;5048907;28;20029;-77
2021/07/31 06:50:24;;;;;;;2.63;1.05;;;22.10;98.10;;;;;;5050840;28;20036;-76
2021/07/31 06:52:50;;;;;;;2.40;0.95;;;22.20;97.20;;;;;;5046519;28;20024;-78
2021/07/31 06:55:15;;;;;;;3.38;0.80;;;22.30;98.30;;;;;;5045653;28;20063;-76
2021/07/31 06:57:41;;;;;;;3.13;0.93;;;22.40;96.40;;;;;;5033322;28;20112;-77
2021/07/31 07:00:07;;;;;;;4.22;1.02;;;22.60;97.60;;;;;;5047643;28;20494;-76
2021/07/31 07:02:33;;;;;;;3.90;0.75;;;22.70;94.30;;;;;;5050246;28;20524;-76
2021/07/31 07:04:59;;;;;;;2.72;0.68;;;22.70;95.00;;;;;;5052421;28;20116;-77
2021/07/31 07:07:24;;;;;;;0.88;0.75;;;22.50;92.90;;;;;;5041602;28;20033;-78
2021/07/31 07:09:50;;;;;;;2.83;0.98;;;22.50;95.30;;;;;;5048860;28;20033;-78
2021/07/31 07:12:16;;;;;;;1.58;0.60;;;22.60;94.10;;;;;;5048049;28;20527;-77
2021/07/31 07:14:41;;;;;;;1.48;0.82;;;22.60;94.10;;;;;;5047908;28;20028;-76
2021/07/31 07:17:07;;;;;;;1.45;0.80;;;22.60;92.20;;;;;;5052003;28;20112;-76
2021/07/31 07:19:33;;;;;;;3.10;0.90;;;22.70;91.90;;;;;;5043015;28;20557;-76
2021/07/31 07:21:59;;;;;;;0.73;0.70;;;22.60;91.70;;;;;;5046138;28;20430;-77
2021/07/31 07:24:25;;;;;;;1.17;0.60;;;22.70;93.00;;;;;;5053173;28;20029;-76
2021/07/31 07:26:50;;;;;;;1.60;0.77;;;22.70;93.00;;;;;;5052200;28;20041;-76
2021/07/31 07:29:16;;;;;;;1.27;0.85;;;22.90;91.10;;;;;;5058054;28;20039;-76
2021/07/31 07:31:42;;;;;;;0.85;0.70;;;23.00;91.00;;;;;;5065076;28;20037;-77
2021/07/31 07:34:07;;;;;;;2.78;0.90;;;23.20;88.10;;;;;;5061645;28;20444;-77
2021/07/31 07:36:33;;;;;;;2.53;0.88;;;23.50;86.20;;;;;;5053241;28;20029;-78
2021/07/31 07:38:59;;;;;;;1.35;0.70;;;23.60;85.30;;;;;;5049365;28;20163;-77
2021/07/31 07:41:24;;;;;;;1.88;0.90;;;23.60;84.20;;;;;;5046630;28;20637;-78
2021/07/31 07:43:50;;;;;;;0.82;0.80;;;23.40;83.70;;;;;;5052278;28;20037;-77
2021/07/31 07:46:17;;;;;;;2.15;0.70;;;23.30;82.50;;;;;;5053328;28;20040;-77
2021/07/31 07:48:44;;;;;;;1.08;0.60;;;23.00;85.10;;;;;;5051435;28;20059;-76
2021/07/31 07:51:10;;;;;;;1.23;0.73;;;22.80;84.90;;;;;;5045817;28;20415;-77
2021/07/31 07:53:36;;;;;;;0.63;0.43;;;22.70;87.70;;;;;;5039194;28;20033;-79
2021/07/31 07:56:02;;;;;;;2.63;0.80;;;22.70;88.30;;;;;;5042589;28;20031;-78
2021/07/31 07:58:28;;;;;;;3.20;0.80;;;22.40;88.00;;;;;;5036431;28;20034;-77
2021/07/31 08:00:54;;;;;;;0.65;0.50;;;22.20;89.80;;;;;;5046425;28;20021;-78
2021/07/31 08:03:19;;;;;;;4.00;0.93;;;22.00;88.70;;;;;;5049426;28;20098;-78
2021/07/31 08:05:45;;;;;;;2.17;0.90;;;21.60;90.40;;;;;;5055264;28;20462;-76
2021/07/31 08:08:11;;;;;;;2.55;0.80;;;21.50;91.00;;;;;;5067692;28;20054;-77
2021/07/31 08:10:38;;;;;;;2.22;0.80;;;21.40;91.20;;;;;;5057145;28;20041;-76
2021/07/31 08:13:04;;;;;;;1.13;0.60;;;21.20;91.90;;;;;;5046872;28;20037;-75
2021/07/31 08:15:30;;;;;;;1.55;0.80;;;21.20;91.60;;;;;;5054782;28;20034;-77
2021/07/31 08:17:55;;;;;;;2.15;0.95;;;21.20;91.50;;;;;;5061205;28;20039;-76
2021/07/31 08:20:22;;;;;;;3.50;1.20;;;21.20;91.40;;;;;;5057802;28;20029;-76
2021/07/31 08:22:48;;;;;;;1.38;0.80;;;21.20;91.00;;;;;;5062377;28;20047;-76
2021/07/31 08:25:14;;;;;;;2.05;0.88;;;21.10;93.40;;;;;;5058406;28;20029;-76
2021/07/31 08:27:40;;;;;;;2.60;1.25;;;21.10;93.80;;;;;;5059497;28;20594;-75
2021/07/31 08:30:07;;;;;;;1.67;0.65;;;21.10;92.70;;;;;;5056830;28;20032;-77
2021/07/31 08:32:33;;;;;;;1.83;0.80;;;21.20;92.10;;;;;;5051616;28;20048;-77
2021/07/31 08:35:00;;;;;;;2.50;1.30;;;21.40;92.10;;;;;;5054712;28;20056;-78
2021/07/31 08:37:27;;;;;;;1.38;0.77;;;21.60;90.70;;;;;;5061031;28;20044;-76
2021/07/31 08:39:52;;;;;;;0.47;0.43;;;21.90;88.70;;;;;;5049284;28;20022;-77
2021/07/31 08:42:18;;;;;;;1.23;0.60;;;22.00;86.70;;;;;;5046957;28;20025;-76
2021/07/31 08:44:44;;;;;;;1.30;0.57;;;21.90;81.60;;;;;;5050387;28;20028;-77
2021/07/31 08:47:10;;;;;;;1.38;0.57;;;21.80;84.50;;;;;;5034326;28;20115;-77
2021/07/31 08:49:38;;;;;;;1.42;0.80;;;21.70;84.50;;;;;;5049122;28;20387;-76
2021/07/31 08:52:07;;;;;;;4.28;1.10;;;21.60;86.50;;;;;;5052460;28;20111;-76
2021/07/31 08:54:36;;;;;;;1.45;0.80;;;21.80;89.00;;;;;;5045116;28;20034;-77
2021/07/31 08:57:01;;;;;;;0.43;0.43;;;21.80;85.80;;;;;;5049221;28;20032;-76
2021/07/31 08:59:28;;;;;;;1.45;0.60;;;21.90;86.20;;;;;;5050196;28;20418;-77
2021/07/31 09:01:55;;;;;;;4.78;0.68;;;22.10;85.20;;;;;;5059734;28;20025;-77
2021/07/31 09:04:22;;;;;;;0.60;0.50;;;22.30;85.30;;;;;;5050898;28;20028;-76
2021/07/31 09:06:48;;;;;;;0.93;0.52;;;22.40;86.70;;;;;;5066850;28;20040;-77
2021/07/31 09:09:22;;;;;;;0.50;0.50;;;22.60;82.30;;;;;;5062473;28;20029;-76
2021/07/31 09:12:00;;;;;;;1.30;0.60;;;22.60;83.80;;;;;;5048193;28;20498;-77
2021/07/31 09:14:26;;;;;;;1.42;0.80;;;22.70;82.30;;;;;;5047909;28;20036;-76
2021/07/31 09:16:52;;;;;;;1.48;0.50;;;22.60;79.80;;;;;;5048575;28;20041;-76
2021/07/31 09:19:19;;;;;;;5.13;0.70;;;22.50;86.10;;;;;;5048797;28;20043;-77
2021/07/31 09:21:46;;;;;;;0.85;0.60;;;22.40;84.60;;;;;;5054763;28;20025;-76
2021/07/31 09:24:23;;;;;;;1.65;0.55;;;22.40;82.10;;;;;;5062820;28;20575;-76
2021/07/31 09:26:51;;;;;;;1.92;0.65;;;22.30;82.00;;;;;;5057975;28;20025;-77
2021/07/31 09:29:24;;;;;;;1.65;0.73;;;22.30;82.50;;;;;;5057968;28;20127;-76
2021/07/31 09:31:54;;;;;;;0.43;0.43;;;22.30;85.10;;;;;;5056262;28;20037;-77
2021/07/31 09:34:44;;;;;;;2.10;0.73;;;22.30;80.00;;;;;;5058180;28;20029;-77
2021/07/31 09:37:17;;;;;;;2.55;0.88;;;22.40;83.40;;;;;;5059690;28;20033;-76
2021/07/31 09:39:56;;;;;;;1.75;0.85;;;22.40;82.10;;;;;;5040277;28;20079;-77
2021/07/31 09:42:29;;;;;;;1.17;0.70;;;22.50;81.10;;;;;;5059416;28;20036;-76
2021/07/31 09:44:57;;;;;;;3.08;0.50;;;22.50;78.20;;;;;;5058518;28;20047;-78
2021/07/31 09:47:23;;;;;;;0.52;0.52;;;22.50;79.90;;;;;;5062356;28;20083;-76
2021/07/31 09:49:50;;;;;;;0.50;0.50;;;22.50;81.30;;;;;;5061746;28;20029;-76
2021/07/31 09:52:25;;;;;;;1.08;0.70;;;22.40;79.20;;;;;;5064605;28;20024;-77
2021/07/31 09:54:52;;;;;;;0.80;0.43;;;22.40;85.00;;;;;;5058244;28;20029;-78
2021/07/31 09:57:18;;;;;;;0.70;0.65;;;22.30;81.10;;;;;;5064635;28;20048;-76
2021/07/31 09:59:46;;;;;;;0.45;0.43;;;22.30;83.00;;;;;;5043315;28;20021;-76
2021/07/31 10:02:20;;;;;;;0.50;0.40;;;22.30;84.40;;;;;;5060531;28;20068;-76
2021/07/31 10:04:46;;;;;;;1.40;0.60;;;22.30;81.20;;;;;;5058940;28;20025;-76
2021/07/31 10:07:13;;;;;;;1.35;0.63;;;22.30;79.30;;;;;;5062492;28;20144;-76
2021/07/31 10:09:41;;;;;;;6.30;0.80;;;22.30;81.30;;;;;;5063950;28;20482;-76
2021/07/31 10:12:11;;;;;;;1.70;0.70;;;22.20;80.30;;;;;;5062279;28;20032;-77
2021/07/31 10:14:39;;;;;;;1.15;0.57;;;22.20;82.00;;;;;;5058887;28;20478;-77
2021/07/31 10:17:05;;;;;;;2.47;0.70;;;22.20;79.90;;;;;;5062954;28;20032;-76
2021/07/31 10:19:39;;;;;;;0.40;0.40;;;22.30;82.40;;;;;;5062915;28;20501;-76
2021/07/31 10:22:05;;;;;;;0.68;0.40;;;22.40;78.50;;;;;;5063674;28;20128;-77
2021/07/31 10:25:02;;;;;;;2.15;0.50;;;22.50;77.00;;;;;;5044940;28;20116;-77
2021/07/31 10:27:28;;;;;;;2.28;0.60;;;22.50;77.80;;;;;;5045912;28;20029;-77
2021/07/31 10:29:55;;;;;;;1.02;0.52;;;22.50;80.60;;;;;;5048463;28;20115;-76
2021/07/31 10:32:32;;;;;;;0.40;0.40;;;22.60;79.30;;;;;;5051420;28;20037;-77
2021/07/31 10:35:03;;;;;;;0.77;0.60;;;22.70;79.80;;;;;;5054069;28;20437;-77
2021/07/31 10:37:32;;;;;;;0.55;0.40;;;22.70;77.00;;;;;;5062396;28;20028;-77
2021/07/31 10:40:00;;;;;;;2.08;0.70;;;22.50;73.70;;;;;;5059290;28;20716;-78
2021/07/31 10:42:47;;;;;;;1.17;0.57;;;22.60;79.00;;;;;;5063609;28;20534;-77
2021/07/31 10:45:15;;;;;;;0.88;0.57;;;22.70;79.50;;;;;;5070058;28;20026;-77
2021/07/31 10:47:46;;;;;;;1.95;0.88;;;22.80;78.00;;;;;;5064610;28;20099;-77
2021/07/31 10:50:25;;;;;;;0.80;0.60;;;22.80;75.90;;;;;;5058510;28;20039;-76
2021/07/31 10:52:57;;;;;;;0.98;0.70;;;22.80;76.90;;;;;;5049979;28;20032;-77
2021/07/31 10:55:35;;;;;;;0.73;0.47;;;22.90;78.40;;;;;;5045096;28;20134;-77
2021/07/31 10:58:14;;;;;;;1.33;0.73;;;23.00;77.80;;;;;;5047877;28;20523;-77
2021/07/31 11:00:45;;;;;;;1.17;0.60;;;23.10;78.40;;;;;;5051359;28;20029;-76
2021/07/31 11:03:26;;;;;;;2.47;0.50;;;23.20;73.50;;;;;;5048447;28;20068;-77
2021/07/31 11:05:55;;;;;;;2.33;0.88;;;23.30;77.70;;;;;;5042248;28;20017;-77
2021/07/31 11:08:21;;;;;;;1.60;0.60;;;23.50;75.50;;;;;;5051233;28;20041;-77
2021/07/31 11:10:51;;;;;;;0.65;0.65;;;23.60;76.70;;;;;;5068081;22;20045;-80
2021/07/31 11:13:16;;;;;;;0.95;0.70;;;23.70;75.40;;;;;;5044076;28;20029;-81
2021/07/31 11:16:04;;;;;;;1.08;0.60;;;23.80;76.10;;;;;;5046861;28;20100;-81
2021/07/31 11:18:35;;;;;;;3.30;0.60;;;23.80;71.40;;;;;;5033786;28;20169;-80
2021/07/31 11:21:13;;;;;;;1.88;0.65;;;23.80;74.30;;;;;;5044953;28;20051;-79
2021/07/31 11:23:45;;;;;;;0.60;0.50;;;23.80;76.70;;;;;;5052784;28;20082;-79
2021/07/31 11:26:11;;;;;;;2.40;0.57;;;23.60;71.60;;;;;;5049525;28;20032;-79
2021/07/31 11:28:37;;;;;;;0.98;0.55;;;23.60;75.60;;;;;;5050505;28;20029;-80
2021/07/31 11:31:18;;;;;;;1.38;0.55;;;23.60;76.20;;;;;;5051403;28;20035;-79
2021/07/31 11:34:01;;;;;;;0.70;0.52;;;23.70;72.90;;;;;;5052316;28;20029;-79
2021/07/31 11:36:28;;;;;;;2.13;0.80;;;23.70;75.90;;;;;;5041074;28;20116;-80
2021/07/31 11:38:54;;;;;;;1.23;0.50;;;23.70;74.50;;;;;;5043001;28;20032;-79
2021/07/31 11:41:21;;;;;;;1.63;0.70;;;23.60;71.60;;;;;;5042437;28;20696;-80
2021/07/31 11:43:52;;;;;;;1.95;0.75;;;23.70;70.60;;;;;;5046286;28;20040;-79
2021/07/31 11:46:34;;;;;;;0.80;0.65;;;23.70;73.00;;;;;;5042271;28;20101;-78
2021/07/31 11:49:03;;;;;;;0.85;0.60;;;23.80;72.70;;;;;;5048790;28;20467;-78
2021/07/31 11:51:29;;;;;;;0.95;0.65;;;23.90;73.60;;;;;;5043979;28;20027;-78
2021/07/31 11:53:55;;;;;;;0.80;0.70;;;24.00;70.20;;;;;;5052999;28;20037;-80
2021/07/31 11:56:24;;;;;;;2.17;0.70;;;24.00;71.80;;;;;;5055351;28;20021;-80
2021/07/31 11:58:53;;;;;;;1.55;0.70;;;24.10;71.00;;;;;;5055448;28;20082;-80
2021/07/31 12:01:20;;;;;;;1.50;0.73;;;24.10;71.60;;;;;;5056674;28;20430;-79
2021/07/31 12:03:53;;;;;;;1.77;0.65;;;24.00;70.10;;;;;;5057223;28;20039;-79
2021/07/31 12:06:30;;;;;;;1.48;0.70;;;23.90;69.20;;;;;;5051859;28;20099;-79
2021/07/31 12:09:01;;;;;;;1.60;0.70;;;24.10;72.00;;;;;;5057295;28;20620;-80
2021/07/31 12:11:54;;;;;;;1.02;0.60;;;24.20;74.60;;;;;;5057530;28;20043;-80
2021/07/31 12:14:34;;;;;;;1.48;0.55;;;24.40;67.60;;;;;;5062668;28;20041;-79
2021/07/31 12:17:24;;;;;;;0.95;0.85;;;24.40;68.30;;;;;;5051898;28;20124;-78
2021/07/31 12:19:55;;;;;;;1.15;0.60;;;24.40;68.80;;;;;;5041999;28;20053;-78
2021/07/31 12:22:26;;;;;;;0.75;0.57;;;24.50;69.20;;;;;;5045505;28;20083;-78
2021/07/31 12:25:12;;;;;;;0.85;0.68;;;24.60;71.20;;;;;;5032627;28;20040;-79
2021/07/31 12:27:58;;;;;;;1.52;0.70;;;24.30;68.50;;;;;;5042223;28;20061;-79
2021/07/31 12:30:30;;;;;;;0.80;0.80;;;24.00;68.10;;;;;;5059040;28;20709;-80
2021/07/31 12:32:58;;;;;;;1.90;0.77;;;23.80;67.60;;;;;;5065599;28;20411;-78
2021/07/31 12:35:37;;;;;;;2.15;0.65;;;23.50;69.00;;;;;;5065503;28;20075;-78
2021/07/31 12:38:05;;;;;;;0.70;0.70;;;23.40;76.00;;;;;;5051632;28;20029;-80
2021/07/31 12:40:31;;;;;;;3.53;1.08;;;23.40;72.50;;;;;;5047739;28;20020;-78
2021/07/31 12:42:57;;;;;;;2.33;0.70;;;23.30;74.60;;;;;;5047807;28;20486;-79
2021/07/31 12:45:26;;;;;;;2.30;0.82;;;23.20;77.40;;;;;;5037473;28;20070;-80
2021/07/31 12:47:52;;;;;;;1.02;0.70;;;23.20;78.00;;;;;;5048769;28;20180;-78
2021/07/31 12:50:18;;;;;;;0.70;0.68;;;23.30;81.10;;;;;;5041658;28;20435;-77
2021/07/31 12:52:44;;;;;;;0.95;0.88;;;23.50;81.10;;;;;;5043208;28;20109;-78
2021/07/31 12:55:09;;;;;;;1.70;0.68;;;23.70;72.30;;;;;;5043436;28;20036;-78
2021/07/31 12:57:35;;;;;;;2.92;0.88;;;24.00;74.50;;;;;;5041569;28;20033;-79